sensor_id;sensor_type;location;lat;lon;timestamp;pressure;altitude;pressure_sealevel;temperature;humidity
7824;BME280;3957;48.61947800;9.05303100;2022-07-23T00:00:08;96198.25;;;19.91;78.99
7824;BME280;3957;48.61947800;9.05303100;2022-07-23T00:01:29;96205.63;;;20.01;74.94
7824;BME280;3957;48.61947800;9.05303100;2022-07-23T00:02:50;96190.47;;;20.05;78.33
7824;BME280;3957;48.61947800;9.05303100;2022-07-23T00:04:10;96190.94;;;19.97;78.86
7824;BME280;3957;48.61947800;9.05303100;2022-07-23T00:05:31;96198.56;;;19.95;79.08
7824;BME280;3957;48.61947800;9.05303100;2022-07-23T00:06:52;96193.69;;;20.02;74.55
7824;BME280;3957;48.61947800;9.05303100;2022-07-23T00:08:13;96177.22;;;20.14;74.51
7824;BME280;3957;48.61947800;9.05303100;2022-07-23T00:09:34;96172.13;;;20.28;72.85
7824;BME280;3957;48.61947800;9.05303100;2022-07-23T00:10:55;96154.44;;;20.25;74.07
7824;BME280;3957;48.61947800;9.05303100;2022-07-23T00:12:16;96151.69;;;20.20;74.14
7824;BME280;3957;48.61947800;9.05303100;2022-07-23T00:13:36;96146.28;;;20.20;73.58
7824;BME280;3957;48.61947800;9.05303100;2022-07-23T00:14:57;96165.28;;;20.20;74.44
7824;BME280;3957;48.61947800;9.05303100;2022-07-23T00:16:18;96170.44;;;20.21;74.43
7824;BME280;3957;48.61947800;9.05303100;2022-07-23T00:17:39;96179.72;;;20.26;74.25
7824;BME280;3957;48.61947800;9.05303100;2022-07-23T00:19:00;96176.19;;;20.25;73.65
7824;BME280;3957;48.61947800;9.05303100;2022-07-23T00:20:24;96187.88;;;20.20;76.56
7824;BME280;3957;48.61947800;9.05303100;2022-07-23T00:21:45;96178.53;;;20.06;76.70
7824;BME280;3957;48.61947800;9.05303100;2022-07-23T00:23:06;96182.56;;;19.98;76.59
7824;BME280;3957;48.61947800;9.05303100;2022-07-23T00:24:26;96173.81;;;19.91;78.34
7824;BME280;3957;48.61947800;9.05303100;2022-07-23T00:25:47;96163.72;;;19.86;77.80
7824;BME280;3957;48.61947800;9.05303100;2022-07-23T00:27:08;96167.03;;;19.94;74.49
7824;BME280;3957;48.61947800;9.05303100;2022-07-23T00:28:29;96172.53;;;20.04;74.03
7824;BME280;3957;48.61947800;9.05303100;2022-07-23T00:29:49;96173.34;;;20.04;74.70
7824;BME280;3957;48.61947800;9.05303100;2022-07-23T00:31:10;96163.19;;;19.90;79.46
7824;BME280;3957;48.61947800;9.05303100;2022-07-23T00:32:31;96158.13;;;19.66;79.20
7824;BME280;3957;48.61947800;9.05303100;2022-07-23T00:33:52;96134.13;;;19.52;81.28
7824;BME280;3957;48.61947800;9.05303100;2022-07-23T00:35:19;96160.63;;;19.40;81.52
7824;BME280;3957;48.61947800;9.05303100;2022-07-23T00:36:40;96156.25;;;19.34;82.64
7824;BME280;3957;48.61947800;9.05303100;2022-07-23T00:38:03;96160.63;;;19.40;80.04
7824;BME280;3957;48.61947800;9.05303100;2022-07-23T00:39:23;96149.28;;;19.43;79.93
7824;BME280;3957;48.61947800;9.05303100;2022-07-23T00:40:45;96148.19;;;19.44;80.12
7824;BME280;3957;48.61947800;9.05303100;2022-07-23T00:42:06;96141.94;;;19.44;80.04
7824;BME280;3957;48.61947800;9.05303100;2022-07-23T00:43:27;96120.75;;;19.41;79.16
7824;BME280;3957;48.61947800;9.05303100;2022-07-23T00:44:47;96086.84;;;19.43;79.61
7824;BME280;3957;48.61947800;9.05303100;2022-07-23T00:46:08;96092.78;;;19.40;81.18
7824;BME280;3957;48.61947800;9.05303100;2022-07-23T00:47:29;96110.75;;;19.46;77.42
7824;BME280;3957;48.61947800;9.05303100;2022-07-23T00:48:50;96119.44;;;19.48;78.72
7824;BME280;3957;48.61947800;9.05303100;2022-07-23T00:50:11;96115.41;;;19.51;77.79
7824;BME280;3957;48.61947800;9.05303100;2022-07-23T00:51:32;96112.47;;;19.58;75.75
7824;BME280;3957;48.61947800;9.05303100;2022-07-23T00:52:53;96120.59;;;19.58;76.87
7824;BME280;3957;48.61947800;9.05303100;2022-07-23T00:54:16;96115.75;;;19.60;76.15
7824;BME280;3957;48.61947800;9.05303100;2022-07-23T00:55:37;96117.13;;;19.67;74.38
7824;BME280;3957;48.61947800;9.05303100;2022-07-23T00:56:58;96117.19;;;19.73;74.36
7824;BME280;3957;48.61947800;9.05303100;2022-07-23T00:58:19;96118.56;;;19.75;74.63
7824;BME280;3957;48.61947800;9.05303100;2022-07-23T00:59:40;96105.91;;;19.91;72.26
7824;BME280;3957;48.61947800;9.05303100;2022-07-23T01:01:02;96110.53;;;19.91;72.99
7824;BME280;3957;48.61947800;9.05303100;2022-07-23T01:02:23;96129.31;;;19.97;71.59
7824;BME280;3957;48.61947800;9.05303100;2022-07-23T01:03:44;96122.81;;;20.03;70.86
7824;BME280;3957;48.61947800;9.05303100;2022-07-23T01:05:06;96134.25;;;20.05;71.32
7824;BME280;3957;48.61947800;9.05303100;2022-07-23T01:06:27;96137.78;;;20.06;72.15
7824;BME280;3957;48.61947800;9.05303100;2022-07-23T01:07:49;96144.28;;;20.00;73.01
7824;BME280;3957;48.61947800;9.05303100;2022-07-23T01:09:10;96133.91;;;19.92;74.09
7824;BME280;3957;48.61947800;9.05303100;2022-07-23T01:10:31;96123.41;;;19.73;77.12
7824;BME280;3957;48.61947800;9.05303100;2022-07-23T01:11:54;96115.13;;;19.52;79.39
7824;BME280;3957;48.61947800;9.05303100;2022-07-23T01:13:15;96115.59;;;19.39;82.69
7824;BME280;3957;48.61947800;9.05303100;2022-07-23T01:14:36;96102.97;;;19.23;82.93
7824;BME280;3957;48.61947800;9.05303100;2022-07-23T01:15:57;96101.28;;;19.16;83.83
7824;BME280;3957;48.61947800;9.05303100;2022-07-23T01:17:18;96095.84;;;19.11;83.57
7824;BME280;3957;48.61947800;9.05303100;2022-07-23T01:18:39;96092.28;;;19.11;84.53
7824;BME280;3957;48.61947800;9.05303100;2022-07-23T01:20:00;96102.53;;;19.03;85.28
7824;BME280;3957;48.61947800;9.05303100;2022-07-23T01:21:20;96098.69;;;18.99;86.11
7824;BME280;3957;48.61947800;9.05303100;2022-07-23T01:22:42;96085.09;;;18.94;86.51
7824;BME280;3957;48.61947800;9.05303100;2022-07-23T01:24:04;96080.19;;;18.91;86.79
7824;BME280;3957;48.61947800;9.05303100;2022-07-23T01:25:27;96082.31;;;18.89;86.69
7824;BME280;3957;48.61947800;9.05303100;2022-07-23T01:26:54;96070.31;;;18.85;87.36
7824;BME280;3957;48.61947800;9.05303100;2022-07-23T01:28:14;96051.59;;;18.83;88.08
7824;BME280;3957;48.61947800;9.05303100;2022-07-23T01:29:35;96043.72;;;18.82;87.68
7824;BME280;3957;48.61947800;9.05303100;2022-07-23T01:31:00;96012.53;;;18.79;89.36
7824;BME280;3957;48.61947800;9.05303100;2022-07-23T01:32:26;96009.78;;;18.74;90.92
7824;BME280;3957;48.61947800;9.05303100;2022-07-23T01:33:47;96031.38;;;18.64;91.20
7824;BME280;3957;48.61947800;9.05303100;2022-07-23T01:35:08;96018.81;;;18.52;92.93
7824;BME280;3957;48.61947800;9.05303100;2022-07-23T01:36:29;96014.66;;;18.45;92.71
7824;BME280;3957;48.61947800;9.05303100;2022-07-23T01:37:50;96023.56;;;18.40;94.43
7824;BME280;3957;48.61947800;9.05303100;2022-07-23T01:39:12;96040.06;;;18.39;93.62
7824;BME280;3957;48.61947800;9.05303100;2022-07-23T01:40:33;96107.88;;;18.44;92.44
7824;BME280;3957;48.61947800;9.05303100;2022-07-23T01:41:54;96081.06;;;18.47;93.52
7824;BME280;3957;48.61947800;9.05303100;2022-07-23T01:43:16;96090.28;;;18.46;93.80
7824;BME280;3957;48.61947800;9.05303100;2022-07-23T01:44:36;96102.19;;;18.45;94.44
7824;BME280;3957;48.61947800;9.05303100;2022-07-23T01:45:58;96093.22;;;18.45;95.26
7824;BME280;3957;48.61947800;9.05303100;2022-07-23T01:47:23;96082.91;;;18.42;93.17
7824;BME280;3957;48.61947800;9.05303100;2022-07-23T01:48:47;96078.88;;;18.44;92.14
7824;BME280;3957;48.61947800;9.05303100;2022-07-23T01:50:24;96072.19;;;18.52;91.08
7824;BME280;3957;48.61947800;9.05303100;2022-07-23T01:52:03;96073.06;;;18.58;91.02
7824;BME280;3957;48.61947800;9.05303100;2022-07-23T01:53:39;96092.31;;;18.61;90.05
7824;BME280;3957;48.61947800;9.05303100;2022-07-23T01:54:59;96086.63;;;18.63;90.92
7824;BME280;3957;48.61947800;9.05303100;2022-07-23T01:56:20;96070.63;;;18.61;90.95
7824;BME280;3957;48.61947800;9.05303100;2022-07-23T01:57:41;96076.06;;;18.61;91.59
7824;BME280;3957;48.61947800;9.05303100;2022-07-23T01:59:03;96100.41;;;18.56;91.90
7824;BME280;3957;48.61947800;9.05303100;2022-07-23T02:00:24;96088.69;;;18.50;92.75
7824;BME280;3957;48.61947800;9.05303100;2022-07-23T02:01:46;96088.38;;;18.47;92.51
7824;BME280;3957;48.61947800;9.05303100;2022-07-23T02:03:07;96091.34;;;18.45;90.59
7824;BME280;3957;48.61947800;9.05303100;2022-07-23T02:04:28;96088.94;;;18.49;89.39
7824;BME280;3957;48.61947800;9.05303100;2022-07-23T02:05:50;96088.47;;;18.57;87.34
7824;BME280;3957;48.61947800;9.05303100;2022-07-23T02:07:11;96082.06;;;18.63;87.49
7824;BME280;3957;48.61947800;9.05303100;2022-07-23T02:08:31;96080.72;;;18.66;86.33
7824;BME280;3957;48.61947800;9.05303100;2022-07-23T02:09:52;96080.75;;;18.71;86.41
7824;BME280;3957;48.61947800;9.05303100;2022-07-23T02:11:13;96088.16;;;18.76;84.63
7824;BME280;3957;48.61947800;9.05303100;2022-07-23T02:12:34;96093.59;;;18.81;84.38
7824;BME280;3957;48.61947800;9.05303100;2022-07-23T02:13:54;96104.38;;;18.98;82.30
7824;BME280;3957;48.61947800;9.05303100;2022-07-23T02:15:16;96112.56;;;19.03;82.70
7824;BME280;3957;48.61947800;9.05303100;2022-07-23T02:16:36;96128.00;;;19.02;83.89
7824;BME280;3957;48.61947800;9.05303100;2022-07-23T02:17:57;96123.09;;;18.99;83.28
7824;BME280;3957;48.61947800;9.05303100;2022-07-23T02:19:18;96119.59;;;18.99;82.75
7824;BME280;3957;48.61947800;9.05303100;2022-07-23T02:20:39;96123.91;;;19.00;83.26
7824;BME280;3957;48.61947800;9.05303100;2022-07-23T02:22:02;96132.63;;;19.02;83.05
7824;BME280;3957;48.61947800;9.05303100;2022-07-23T02:23:23;96137.78;;;19.03;83.56
7824;BME280;3957;48.61947800;9.05303100;2022-07-23T02:24:43;96133.16;;;19.04;83.88
7824;BME280;3957;48.61947800;9.05303100;2022-07-23T02:26:04;96138.34;;;19.06;83.76
7824;BME280;3957;48.61947800;9.05303100;2022-07-23T02:27:25;96138.84;;;19.02;83.42
7824;BME280;3957;48.61947800;9.05303100;2022-07-23T02:28:47;96150.22;;;18.99;83.64
7824;BME280;3957;48.61947800;9.05303100;2022-07-23T02:30:08;96153.75;;;19.00;83.30
7824;BME280;3957;48.61947800;9.05303100;2022-07-23T02:31:30;96158.34;;;18.99;83.75
7824;BME280;3957;48.61947800;9.05303100;2022-07-23T02:32:51;96171.91;;;18.99;83.56
7824;BME280;3957;48.61947800;9.05303100;2022-07-23T02:34:12;96168.63;;;18.97;84.07
7824;BME280;3957;48.61947800;9.05303100;2022-07-23T02:35:33;96168.88;;;18.96;84.14
7824;BME280;3957;48.61947800;9.05303100;2022-07-23T02:36:56;96182.44;;;18.96;84.05
7824;BME280;3957;48.61947800;9.05303100;2022-07-23T02:38:17;96167.28;;;18.95;85.23
7824;BME280;3957;48.61947800;9.05303100;2022-07-23T02:39:40;96167.28;;;18.95;84.93
7824;BME280;3957;48.61947800;9.05303100;2022-07-23T02:41:01;96173.50;;;18.95;85.06
7824;BME280;3957;48.61947800;9.05303100;2022-07-23T02:42:22;96174.81;;;18.93;85.46
7824;BME280;3957;48.61947800;9.05303100;2022-07-23T02:43:44;96170.19;;;18.88;84.28
7824;BME280;3957;48.61947800;9.05303100;2022-07-23T02:45:07;96170.19;;;18.88;83.99
7824;BME280;3957;48.61947800;9.05303100;2022-07-23T02:46:28;96162.84;;;18.89;84.17
7824;BME280;3957;48.61947800;9.05303100;2022-07-23T02:47:50;96174.50;;;18.89;85.48
7824;BME280;3957;48.61947800;9.05303100;2022-07-23T02:49:10;96175.81;;;18.86;84.01
7824;BME280;3957;48.61947800;9.05303100;2022-07-23T02:50:32;96171.47;;;18.85;85.59
7824;BME280;3957;48.61947800;9.05303100;2022-07-23T02:51:54;96170.41;;;18.86;86.38
7824;BME280;3957;48.61947800;9.05303100;2022-07-23T02:53:15;96172.00;;;18.82;87.88
7824;BME280;3957;48.61947800;9.05303100;2022-07-23T02:54:37;96179.25;;;18.77;88.38
7824;BME280;3957;48.61947800;9.05303100;2022-07-23T02:55:58;96176.22;;;18.73;88.39
7824;BME280;3957;48.61947800;9.05303100;2022-07-23T02:57:19;96183.53;;;18.73;88.42
7824;BME280;3957;48.61947800;9.05303100;2022-07-23T02:58:39;96183.53;;;18.73;88.19
7824;BME280;3957;48.61947800;9.05303100;2022-07-23T03:00:00;96185.16;;;18.74;87.91
7824;BME280;3957;48.61947800;9.05303100;2022-07-23T03:01:21;96187.06;;;18.73;88.49
7824;BME280;3957;48.61947800;9.05303100;2022-07-23T03:02:42;96190.03;;;18.72;87.96
7824;BME280;3957;48.61947800;9.05303100;2022-07-23T03:04:03;96193.53;;;18.72;87.95
7824;BME280;3957;48.61947800;9.05303100;2022-07-23T03:05:24;96192.91;;;18.65;87.85
7824;BME280;3957;48.61947800;9.05303100;2022-07-23T03:06:44;96193.69;;;18.60;88.76
7824;BME280;3957;48.61947800;9.05303100;2022-07-23T03:08:05;96190.06;;;18.55;88.80
7824;BME280;3957;48.61947800;9.05303100;2022-07-23T03:09:29;96194.94;;;18.52;89.39
7824;BME280;3957;48.61947800;9.05303100;2022-07-23T03:10:49;96188.94;;;18.50;89.26
7824;BME280;3957;48.61947800;9.05303100;2022-07-23T03:12:10;96191.09;;;18.48;89.68
7824;BME280;3957;48.61947800;9.05303100;2022-07-23T03:13:31;96187.56;;;18.48;89.79
7824;BME280;3957;48.61947800;9.05303100;2022-07-23T03:14:52;96185.59;;;18.43;89.68
7824;BME280;3957;48.61947800;9.05303100;2022-07-23T03:16:13;96186.69;;;18.42;90.29
7824;BME280;3957;48.61947800;9.05303100;2022-07-23T03:17:33;96183.16;;;18.42;91.36
7824;BME280;3957;48.61947800;9.05303100;2022-07-23T03:18:55;96184.22;;;18.41;90.83
7824;BME280;3957;48.61947800;9.05303100;2022-07-23T03:20:15;96179.38;;;18.43;91.35
7824;BME280;3957;48.61947800;9.05303100;2022-07-23T03:21:36;96178.78;;;18.41;92.02
7824;BME280;3957;48.61947800;9.05303100;2022-07-23T03:23:00;96185.56;;;18.38;93.17
7824;BME280;3957;48.61947800;9.05303100;2022-07-23T03:24:22;96179.81;;;18.34;93.63
7824;BME280;3957;48.61947800;9.05303100;2022-07-23T03:26:03;96179.72;;;18.29;93.56
7824;BME280;3957;48.61947800;9.05303100;2022-07-23T03:27:26;96181.31;;;18.25;94.47
7824;BME280;3957;48.61947800;9.05303100;2022-07-23T03:28:47;96175.34;;;18.23;94.83
7824;BME280;3957;48.61947800;9.05303100;2022-07-23T03:30:08;96176.91;;;18.19;95.05
7824;BME280;3957;48.61947800;9.05303100;2022-07-23T03:31:30;96173.06;;;18.15;95.36
7824;BME280;3957;48.61947800;9.05303100;2022-07-23T03:32:51;96170.84;;;18.12;95.82
7824;BME280;3957;48.61947800;9.05303100;2022-07-23T03:34:12;96176.19;;;18.07;94.48
7824;BME280;3957;48.61947800;9.05303100;2022-07-23T03:35:33;96171.84;;;18.06;93.70
7824;BME280;3957;48.61947800;9.05303100;2022-07-23T03:37:11;96172.66;;;18.06;94.10
7824;BME280;3957;48.61947800;9.05303100;2022-07-23T03:38:32;96173.22;;;18.08;93.82
7824;BME280;3957;48.61947800;9.05303100;2022-07-23T03:39:53;96175.13;;;18.08;93.78
7824;BME280;3957;48.61947800;9.05303100;2022-07-23T03:41:14;96177.06;;;18.12;92.91
7824;BME280;3957;48.61947800;9.05303100;2022-07-23T03:42:35;96176.13;;;18.24;90.49
7824;BME280;3957;48.61947800;9.05303100;2022-07-23T03:43:57;96177.22;;;18.45;87.70
7824;BME280;3957;48.61947800;9.05303100;2022-07-23T03:45:18;96175.28;;;18.62;86.48
7824;BME280;3957;48.61947800;9.05303100;2022-07-23T03:46:39;96167.88;;;18.80;83.55
7824;BME280;3957;48.61947800;9.05303100;2022-07-23T03:47:59;96173.75;;;18.94;82.79
7824;BME280;3957;48.61947800;9.05303100;2022-07-23T03:49:20;96164.78;;;18.93;83.38
7824;BME280;3957;48.61947800;9.05303100;2022-07-23T03:50:41;96182.91;;;18.88;84.44
7824;BME280;3957;48.61947800;9.05303100;2022-07-23T03:52:02;96175.44;;;18.78;85.75
7824;BME280;3957;48.61947800;9.05303100;2022-07-23T03:53:24;96178.84;;;18.68;86.33
7824;BME280;3957;48.61947800;9.05303100;2022-07-23T03:54:45;96185.59;;;18.65;85.98
7824;BME280;3957;48.61947800;9.05303100;2022-07-23T03:56:06;96190.47;;;18.63;86.28
7824;BME280;3957;48.61947800;9.05303100;2022-07-23T03:57:28;96195.88;;;18.63;87.12
7824;BME280;3957;48.61947800;9.05303100;2022-07-23T03:58:49;96200.72;;;18.61;88.85
7824;BME280;3957;48.61947800;9.05303100;2022-07-23T04:00:11;96211.00;;;18.59;90.09
7824;BME280;3957;48.61947800;9.05303100;2022-07-23T04:01:36;96213.66;;;18.54;90.45
7824;BME280;3957;48.61947800;9.05303100;2022-07-23T04:02:57;96208.41;;;18.47;91.08
7824;BME280;3957;48.61947800;9.05303100;2022-07-23T04:04:17;96208.91;;;18.44;91.95
7824;BME280;3957;48.61947800;9.05303100;2022-07-23T04:05:39;96203.44;;;18.39;93.33
7824;BME280;3957;48.61947800;9.05303100;2022-07-23T04:07:01;96195.81;;;18.36;94.39
7824;BME280;3957;48.61947800;9.05303100;2022-07-23T04:08:23;96207.16;;;18.33;94.26
7824;BME280;3957;48.61947800;9.05303100;2022-07-23T04:09:46;96199.19;;;18.26;93.94
7824;BME280;3957;48.61947800;9.05303100;2022-07-23T04:11:07;96202.41;;;18.23;95.15
7824;BME280;3957;48.61947800;9.05303100;2022-07-23T04:12:28;96199.97;;;18.22;96.57
7824;BME280;3957;48.61947800;9.05303100;2022-07-23T04:13:48;96204.16;;;18.12;95.87
7824;BME280;3957;48.61947800;9.05303100;2022-07-23T04:15:09;96193.25;;;18.07;96.85
7824;BME280;3957;48.61947800;9.05303100;2022-07-23T04:16:30;96210.25;;;18.02;97.43
7824;BME280;3957;48.61947800;9.05303100;2022-07-23T04:17:52;96211.06;;;18.03;97.60
7824;BME280;3957;48.61947800;9.05303100;2022-07-23T04:19:15;96211.91;;;18.04;98.98
7824;BME280;3957;48.61947800;9.05303100;2022-07-23T04:20:48;96216.97;;;18.00;98.97
7824;BME280;3957;48.61947800;9.05303100;2022-07-23T04:22:11;96212.69;;;18.04;99.74
7824;BME280;3957;48.61947800;9.05303100;2022-07-23T04:23:32;96211.06;;;18.03;100.00
7824;BME280;3957;48.61947800;9.05303100;2022-07-23T04:24:53;96210.25;;;18.02;100.00
7824;BME280;3957;48.61947800;9.05303100;2022-07-23T04:26:13;96208.19;;;18.10;100.00
7824;BME280;3957;48.61947800;9.05303100;2022-07-23T04:27:34;96209.81;;;18.11;99.29
7824;BME280;3957;48.61947800;9.05303100;2022-07-23T04:28:55;96213.94;;;18.13;99.63
7824;BME280;3957;48.61947800;9.05303100;2022-07-23T04:30:16;96213.59;;;18.10;98.74
7824;BME280;3957;48.61947800;9.05303100;2022-07-23T04:31:37;96217.13;;;18.10;99.06
7824;BME280;3957;48.61947800;9.05303100;2022-07-23T04:32:58;96213.84;;;18.08;98.81
7824;BME280;3957;48.61947800;9.05303100;2022-07-23T04:34:22;96209.81;;;18.11;98.85
7824;BME280;3957;48.61947800;9.05303100;2022-07-23T04:35:43;96198.75;;;18.12;97.31
7824;BME280;3957;48.61947800;9.05303100;2022-07-23T04:37:08;96205.38;;;18.22;98.02
7824;BME280;3957;48.61947800;9.05303100;2022-07-23T04:38:30;96200.59;;;18.29;96.69
7824;BME280;3957;48.61947800;9.05303100;2022-07-23T04:39:55;96205.16;;;18.45;96.03
7824;BME280;3957;48.61947800;9.05303100;2022-07-23T04:41:17;96204.47;;;18.55;94.63
7824;BME280;3957;48.61947800;9.05303100;2022-07-23T04:42:38;96213.97;;;18.58;92.46
7824;BME280;3957;48.61947800;9.05303100;2022-07-23T04:43:58;96212.84;;;18.76;92.49
7824;BME280;3957;48.61947800;9.05303100;2022-07-23T04:45:19;96206.66;;;19.02;91.38
7824;BME280;3957;48.61947800;9.05303100;2022-07-23T04:46:42;96206.22;;;19.38;89.59
7824;BME280;3957;48.61947800;9.05303100;2022-07-23T04:48:03;96201.66;;;19.76;88.38
7824;BME280;3957;48.61947800;9.05303100;2022-07-23T04:49:24;96202.06;;;19.95;86.97
7824;BME280;3957;48.61947800;9.05303100;2022-07-23T04:50:45;96207.09;;;20.14;84.21
7824;BME280;3957;48.61947800;9.05303100;2022-07-23T04:52:12;96210.50;;;20.36;84.71
7824;BME280;3957;48.61947800;9.05303100;2022-07-23T04:53:33;96217.06;;;20.46;82.79
7824;BME280;3957;48.61947800;9.05303100;2022-07-23T04:54:55;96218.22;;;20.55;82.97
7824;BME280;3957;48.61947800;9.05303100;2022-07-23T04:56:16;96217.41;;;20.60;84.37
7824;BME280;3957;48.61947800;9.05303100;2022-07-23T04:57:36;96208.44;;;20.64;81.74
7824;BME280;3957;48.61947800;9.05303100;2022-07-23T04:58:57;96215.34;;;20.77;83.24
7824;BME280;3957;48.61947800;9.05303100;2022-07-23T05:00:18;96206.53;;;20.60;82.91
7824;BME280;3957;48.61947800;9.05303100;2022-07-23T05:01:39;96211.66;;;20.51;82.56
7824;BME280;3957;48.61947800;9.05303100;2022-07-23T05:03:00;96220.25;;;20.32;83.02
7824;BME280;3957;48.61947800;9.05303100;2022-07-23T05:04:21;96217.25;;;20.29;83.04
7824;BME280;3957;48.61947800;9.05303100;2022-07-23T05:05:43;96221.31;;;20.31;84.47
7824;BME280;3957;48.61947800;9.05303100;2022-07-23T05:07:08;96215.34;;;20.29;88.04
7824;BME280;3957;48.61947800;9.05303100;2022-07-23T05:08:29;96212.00;;;20.65;87.94
7824;BME280;3957;48.61947800;9.05303100;2022-07-23T05:09:52;96211.00;;;20.81;86.22
7824;BME280;3957;48.61947800;9.05303100;2022-07-23T05:11:13;96207.78;;;20.89;83.92
7824;BME280;3957;48.61947800;9.05303100;2022-07-23T05:12:34;96208.78;;;20.68;83.17
7824;BME280;3957;48.61947800;9.05303100;2022-07-23T05:13:54;96209.72;;;20.46;82.52
7824;BME280;3957;48.61947800;9.05303100;2022-07-23T05:15:16;96203.91;;;20.75;82.93
7824;BME280;3957;48.61947800;9.05303100;2022-07-23T05:16:37;96202.44;;;21.36;79.48
7824;BME280;3957;48.61947800;9.05303100;2022-07-23T05:18:03;96203.88;;;21.80;75.52
7824;BME280;3957;48.61947800;9.05303100;2022-07-23T05:19:24;96208.41;;;22.46;73.40
7824;BME280;3957;48.61947800;9.05303100;2022-07-23T05:20:44;96202.13;;;22.51;70.51
7824;BME280;3957;48.61947800;9.05303100;2022-07-23T05:22:09;96209.34;;;22.97;68.57
7824;BME280;3957;48.61947800;9.05303100;2022-07-23T05:23:30;96210.63;;;23.15;67.87
7824;BME280;3957;48.61947800;9.05303100;2022-07-23T05:24:51;96205.25;;;22.89;67.25
7824;BME280;3957;48.61947800;9.05303100;2022-07-23T05:26:11;96204.84;;;23.21;67.27
7824;BME280;3957;48.61947800;9.05303100;2022-07-23T05:27:33;96204.72;;;23.42;65.40
7824;BME280;3957;48.61947800;9.05303100;2022-07-23T05:28:54;96215.63;;;23.47;63.76
7824;BME280;3957;48.61947800;9.05303100;2022-07-23T05:30:14;96211.06;;;23.72;64.47
7824;BME280;3957;48.61947800;9.05303100;2022-07-23T05:31:37;96214.44;;;23.19;66.00
7824;BME280;3957;48.61947800;9.05303100;2022-07-23T05:33:00;96209.81;;;22.23;69.22
7824;BME280;3957;48.61947800;9.05303100;2022-07-23T05:34:20;96204.94;;;21.79;71.73
7824;BME280;3957;48.61947800;9.05303100;2022-07-23T05:35:42;96204.94;;;21.58;74.03
7824;BME280;3957;48.61947800;9.05303100;2022-07-23T05:37:13;96211.69;;;21.35;75.99
7824;BME280;3957;48.61947800;9.05303100;2022-07-23T05:38:34;96206.63;;;20.75;77.83
7824;BME280;3957;48.61947800;9.05303100;2022-07-23T05:40:00;96207.88;;;20.57;80.04
7824;BME280;3957;48.61947800;9.05303100;2022-07-23T05:41:22;96211.56;;;20.30;81.81
7824;BME280;3957;48.61947800;9.05303100;2022-07-23T05:42:43;96206.84;;;20.15;83.75
7824;BME280;3957;48.61947800;9.05303100;2022-07-23T05:44:05;96212.50;;;20.09;85.05
7824;BME280;3957;48.61947800;9.05303100;2022-07-23T05:45:26;96218.59;;;19.88;86.15
7824;BME280;3957;48.61947800;9.05303100;2022-07-23T05:46:47;96219.53;;;19.72;87.54
7824;BME280;3957;48.61947800;9.05303100;2022-07-23T05:48:13;96223.84;;;19.68;87.96
7824;BME280;3957;48.61947800;9.05303100;2022-07-23T05:49:50;96218.56;;;19.56;88.64
7824;BME280;3957;48.61947800;9.05303100;2022-07-23T05:51:23;96217.78;;;19.56;88.58
7824;BME280;3957;48.61947800;9.05303100;2022-07-23T05:52:45;96225.00;;;19.77;88.41
7824;BME280;3957;48.61947800;9.05303100;2022-07-23T05:54:29;96222.69;;;19.91;88.35
7824;BME280;3957;48.61947800;9.05303100;2022-07-23T05:55:50;96226.72;;;19.88;87.82
7824;BME280;3957;48.61947800;9.05303100;2022-07-23T05:57:11;96213.25;;;19.99;87.92
7824;BME280;3957;48.61947800;9.05303100;2022-07-23T05:58:31;96213.44;;;20.25;87.84
7824;BME280;3957;48.61947800;9.05303100;2022-07-23T05:59:52;96215.66;;;20.38;87.32
7824;BME280;3957;48.61947800;9.05303100;2022-07-23T06:01:13;96221.66;;;20.98;83.19
7824;BME280;3957;48.61947800;9.05303100;2022-07-23T06:02:41;96211.66;;;21.19;81.47
7824;BME280;3957;48.61947800;9.05303100;2022-07-23T06:04:03;96214.47;;;21.61;80.11
7824;BME280;3957;48.61947800;9.05303100;2022-07-23T06:05:29;96221.50;;;22.49;75.85
7824;BME280;3957;48.61947800;9.05303100;2022-07-23T06:06:51;96215.28;;;23.04;73.45
7824;BME280;3957;48.61947800;9.05303100;2022-07-23T06:08:12;96218.75;;;23.70;69.87
7824;BME280;3957;48.61947800;9.05303100;2022-07-23T06:09:33;96218.91;;;24.18;67.74
7824;BME280;3957;48.61947800;9.05303100;2022-07-23T06:10:54;96210.47;;;24.68;65.13
7824;BME280;3957;48.61947800;9.05303100;2022-07-23T06:12:16;96203.38;;;24.67;61.95
7824;BME280;3957;48.61947800;9.05303100;2022-07-23T06:13:36;96202.19;;;25.17;62.69
7824;BME280;3957;48.61947800;9.05303100;2022-07-23T06:14:57;96188.38;;;25.46;61.48
7824;BME280;3957;48.61947800;9.05303100;2022-07-23T06:16:18;96193.84;;;26.17;60.54
7824;BME280;3957;48.61947800;9.05303100;2022-07-23T06:17:40;96183.19;;;26.29;58.38
7824;BME280;3957;48.61947800;9.05303100;2022-07-23T06:19:01;96188.03;;;26.05;57.39
7824;BME280;3957;48.61947800;9.05303100;2022-07-23T06:20:24;96187.13;;;26.23;55.95
7824;BME280;3957;48.61947800;9.05303100;2022-07-23T06:21:45;96193.34;;;26.43;54.83
7824;BME280;3957;48.61947800;9.05303100;2022-07-23T06:23:06;96197.56;;;26.07;56.28
7824;BME280;3957;48.61947800;9.05303100;2022-07-23T06:24:27;96204.72;;;26.50;56.64
7824;BME280;3957;48.61947800;9.05303100;2022-07-23T06:25:47;96214.50;;;27.12;55.65
7824;BME280;3957;48.61947800;9.05303100;2022-07-23T06:27:08;96215.50;;;26.33;54.72
7824;BME280;3957;48.61947800;9.05303100;2022-07-23T06:28:29;96213.72;;;26.09;57.12
7824;BME280;3957;48.61947800;9.05303100;2022-07-23T06:29:51;96210.47;;;25.88;57.99
7824;BME280;3957;48.61947800;9.05303100;2022-07-23T06:31:12;96207.97;;;25.91;56.80